Time;durP1;ratioP1;P1;durP2;ratioP2;P2;SDS_P1;SDS_P2;PMS_P1;PMS_P2;Temp;Humidity;BMP_temperature;BMP_pressure;BME280_temperature;BME280_humidity;BME280_pressure;Samples;Min_cycle;Max_cycle;Signal;HPM_P1;HPM_P2
2022/05/06 12:44:16;;;;;;;;;;;;;;;;;;1895459;28;6930;-71
2022/05/06 12:45:15;;;;;;;;;;;;;;;;;;1894969;28;7146;-67
2022/05/06 12:46:36;;;;;;;;;;;;;;;;;;1898968;28;7101;-68
2022/05/06 12:50:09;;;;;;;;;;;;;;;;;;1897249;28;7092;-66
2022/05/06 12:51:07;;;;;;;;;;;;;;;;;;1897530;28;7085;-68
2022/05/06 12:52:06;;;;;;;;;;;;;;;;;;1896901;28;8062;-68
2022/05/06 12:53:03;;;;;;;;;;;;;;;;;;1897580;28;7001;-68
2022/05/06 12:54:01;;;;;;;;;;;;;;;;;;1898706;28;7100;-66
2022/05/06 12:54:58;;;;;;;;;;;;;;;;;;1898361;28;8031;-68
2022/05/06 12:55:57;;;;;;;;;;;;;;;;;;1897857;28;7001;-67
2022/05/06 12:56:55;;;;;;;;;;;;;;;;;;1897590;28;7013;-68
2022/05/06 12:57:52;;;;;;;;;;;;;;;;;;1897563;28;7013;-67
2022/05/06 12:58:50;;;;;;;;;;;;;;;;;;1889540;28;9204;-69
2022/05/06 12:59:47;;;;;;;;;;;;;;;;;;1889882;28;7002;-68
2022/05/06 13:00:44;;;;;;;;;;;;;;;;;;1896895;28;7189;-68
2022/05/06 13:01:42;;;;;;;;;;;;;;;;;;1897742;28;7092;-67
2022/05/06 13:02:40;;;;;;;;;;;;;;;;;;1897093;28;7308;-68
2022/05/06 13:03:37;;;;;;;;;;;;;;;;;;1897928;28;7005;-68
2022/05/06 13:04:36;;;;;;;;;;;;;;;;;;1897758;28;7013;-69
2022/05/06 13:05:34;;;;;;;;;;;;;;;;;;1897707;28;7120;-67
2022/05/06 13:06:33;;;;;;;;;;;;;;;;;;1897663;28;7013;-68
2022/05/06 13:07:30;;;;;;;;;;;;;;;;;;1897330;28;7005;-67
2022/05/06 13:08:28;;;;;;;;;;;;;;;;;;1890089;28;8735;-66
2022/05/06 13:09:25;;;;;;;;;;;;;;;;;;1889858;28;7070;-67
2022/05/06 13:10:23;;;;;;;;;;;;;;;;;;1896523;28;7117;-68
2022/05/06 13:11:20;;;;;;;;;;;;;;;;;;1898349;28;7121;-68
2022/05/06 13:12:18;;;;;;;;;;;;;;;;;;1897796;28;7002;-68
2022/05/06 13:13:15;;;;;;;;;;;;;;;;;;1897734;28;7005;-68
2022/05/06 13:14:13;;;;;;;;;;;;;;;;;;1898138;28;7014;-68
2022/05/06 13:15:10;;;;;;;;;;;;;;;;;;1898675;28;8151;-66
2022/05/06 13:16:08;;;;;;;;;;;;;;;;;;1898093;28;7013;-66
2022/05/06 13:17:06;;;;;;;;;;;;;;;;;;1889813;28;7101;-69
2022/05/06 13:18:03;;;;;;;;;;;;;;;;;;1890075;28;7068;-67
2022/05/06 13:19:02;;;;;;;;;;;;;;;;;;1896331;28;7106;-69
2022/05/06 13:19:59;;;;;;;;;;;;;;;;;;1898387;28;7005;-68
2022/05/06 13:20:58;;;;;;;;;;;;;;;;;;1898308;28;7164;-68
2022/05/06 13:21:56;;;;;;;;;;;;;;;;;;1898936;28;7005;-68
2022/05/06 13:22:53;;;;;;;;;;;;;;;;;;1898169;28;7089;-66
2022/05/06 13:23:51;;;;;;;;;;;;;;;;;;1898124;28;7077;-68
2022/05/06 13:24:50;;;;;;;;;;;;;;;;;;1898281;28;7096;-68
2022/05/06 13:25:48;;;;;;;;;;;;;;;;;;1898563;28;7009;-67
2022/05/06 13:26:47;;;;;;;;;;;;;;;;;;1898096;28;7006;-67
2022/05/06 13:27:45;;;;;;;;;;;;;;;;;;1896198;28;8986;-65
2022/05/06 13:28:44;;;;;;;;;;;;;;;;;;1897403;28;7132;-66
2022/05/06 13:29:41;;;;;;;;;;;;;;;;;;1897833;28;7022;-67
2022/05/06 13:30:39;;;;;;;;;;;;;;;;;;1897559;28;7067;-66
2022/05/06 13:31:36;;;;;;;;;;;;;;;;;;1897778;28;7204;-68
2022/05/06 13:32:34;;;;;;;;;;;;;;;;;;1897336;28;7128;-66
2022/05/06 13:33:32;;;;;;;;;;;;;;;;;;1897227;28;7037;-66
2022/05/06 13:34:29;;;;;;;;;;;;;;;;;;1897623;28;7092;-67
2022/05/06 13:35:30;;;;;;;;;;;;;;;;;;1897763;28;7010;-66
2022/05/06 13:36:30;;;;;;;;;;;;;;;;;;1898673;28;7467;-65
2022/05/06 13:37:27;;;;;;;;;;;;;;;;;;1897644;28;7332;-67
2022/05/06 13:38:25;;;;;;;;;;;;;;;;;;1897395;28;7155;-68
2022/05/06 13:39:22;;;;;;;;;;;;;;;;;;1897592;28;7324;-66
2022/05/06 13:40:20;;;;;;;;;;;;;;;;;;1897293;28;7005;-68
2022/05/06 13:41:17;;;;;;;;;;;;;;;;;;1897698;28;7005;-66
2022/05/06 13:42:15;;;;;;;;;;;;;;;;;;1897039;28;7010;-67
2022/05/06 13:43:13;;;;;;;;;;;;;;;;;;1897757;28;7010;-67
2022/05/06 13:44:10;;;;;;;;;;;;;;;;;;1897957;28;7010;-68
2022/05/06 13:45:08;;;;;;;;;;;;;;;;;;1896946;28;7041;-66
2022/05/06 13:46:05;;;;;;;;;;;;;;;;;;1896855;28;7006;-66
2022/05/06 13:47:03;;;;;;;;;;;;;;;;;;1897805;28;7356;-67
2022/05/06 13:48:01;;;;;;;;;;;;;;;;;;1897615;28;7109;-66
2022/05/06 13:48:59;;;;;;;;;;;;;;;;;;1898253;28;8059;-67
2022/05/06 13:49:56;;;;;;;;;;;;;;;;;;1897966;28;7010;-66
2022/05/06 13:51:00;;;;;;;;;;;;;;;;;;1898546;28;7340;-67
2022/05/06 13:51:57;;;;;;;;;;;;;;;;;;1898346;28;7018;-66
2022/05/06 13:52:55;;;;;;;;;;;;;;;;;;1897449;28;7017;-67
2022/05/06 13:53:52;;;;;;;;;;;;;;;;;;1889264;28;7244;-66
2022/05/06 13:54:50;;;;;;;;;;;;;;;;;;1890128;28;7062;-67
2022/05/06 13:59:54;;;;;;;;;;;;;;;;;;1898386;28;7009;-67
2022/05/06 14:00:52;;;;;;;;;;;;;;;;;;1897644;28;7066;-67
2022/05/06 14:01:49;;;;;;;;;;;;;;;;;;1890127;28;8100;-67
2022/05/06 14:02:48;;;;;;;;;;;;;;;;;;1889481;28;7042;-66
2022/05/06 14:03:53;;;;;;;;;;;;;;;;;;1898207;28;7009;-67
2022/05/06 14:04:51;;;;;;;;;;;;;;;;;;1897645;28;7006;-67
2022/05/06 14:05:55;;;;;;;;;;;;;;;;;;1898151;28;7031;-68
2022/05/06 14:06:52;;;;;;;;;;;;;;;;;;1897552;28;7092;-67
2022/05/06 14:07:50;;;;;;;;;;;;;;;;;;1898276;28;7249;-66
2022/05/06 14:08:47;;;;;;;;;;;;;;;;;;1898326;28;7093;-67
2022/05/06 14:09:44;;;;;;;;;;;;;;;;;;1897888;28;7120;-67
2022/05/06 14:10:42;;;;;;;;;;;;;;;;;;1897941;28;8112;-67
2022/05/06 14:11:39;;;;;;;;;;;;;;;;;;1898118;28;7001;-66
2022/05/06 14:12:37;;;;;;;;;;;;;;;;;;1898330;28;7009;-67
2022/05/06 14:13:34;;;;;;;;;;;;;;;;;;1897635;28;8035;-68
2022/05/06 14:14:32;;;;;;;;;;;;;;;;;;1897900;28;7006;-67
2022/05/06 14:15:29;;;;;;;;;;;;;;;;;;1898344;28;8043;-67
2022/05/06 14:16:27;;;;;;;;;;;;;;;;;;1897291;28;8035;-66
2022/05/06 14:17:25;;;;;;;;;;;;;;;;;;1898267;28;7009;-68
2022/05/06 14:18:23;;;;;;;;;;;;;;;;;;1898042;28;7001;-66
2022/05/06 14:19:20;;;;;;;;;;;;;;;;;;1897493;28;7309;-68
2022/05/06 14:20:17;;;;;;;;;;;;;;;;;;1897027;28;7092;-66
2022/05/06 14:21:15;;;;;;;;;;;;;;;;;;1897723;28;8237;-67
2022/05/06 14:22:13;;;;;;;;;;;;;;;;;;1898431;28;8086;-66
2022/05/06 14:23:11;;;;;;;;;;;;;;;;;;1897508;28;7138;-67
2022/05/06 14:24:10;;;;;;;;;;;;;;;;;;1896945;28;7355;-68
2022/05/06 14:25:08;;;;;;;;;;;;;;;;;;1897843;28;7034;-66
2022/05/06 14:26:05;;;;;;;;;;;;;;;;;;1898017;28;8406;-67
2022/05/06 14:27:03;;;;;;;;;;;;;;;;;;1897884;28;7120;-66
2022/05/06 14:28:00;;;;;;;;;;;;;;;;;;1894686;28;7042;-68
2022/05/06 14:28:58;;;;;;;;;;;;;;;;;;1897640;28;7963;-67
2022/05/06 14:30:57;;;;;;;;;;;;;;;;;;1911897;28;6827;-69
2022/05/06 14:31:56;;;;;;;;;;;;;;;;;;1903669;28;7022;-69
2022/05/06 14:32:53;;;;;;;;;;;;;;;;;;1907151;28;8039;-66
2022/05/06 14:33:50;;;;;;;;;;;;;;;;;;1903242;28;7010;-66
2022/05/06 14:34:48;;;;;;;;;;;;;;;;;;1903065;28;7038;-69
2022/05/06 14:35:46;;;;;;;;;;;;;;;;;;1903409;28;7001;-68
2022/05/06 14:36:43;;;;;;;;;;;;;;;;;;1904058;28;7092;-68
2022/05/06 14:37:44;;;;;;;;;;;;;;;;;;1903441;28;7002;-67
2022/05/06 14:38:41;;;;;;;;;;;;;;;;;;1902154;28;7065;-67
2022/05/06 14:39:39;;;;;;;;;;;;;;;;;;1903478;28;7104;-66
2022/05/06 14:40:36;;;;;;;;;;;;;;;;;;1903049;28;7005;-67
2022/05/06 14:41:34;;;;;;;;;;;;;;;;;;1909840;28;7096;-65
2022/05/06 14:42:31;;;;;;;;;;;;;;;;;;1909887;28;7138;-69
2022/05/06 14:43:28;;;;;;;;;;;;;;;;;;1911004;28;7042;-67
2022/05/06 14:44:26;;;;;;;;;;;;;;;;;;1910236;28;7124;-68
2022/05/06 14:45:24;;;;;;;;;;;;;;;;;;1911410;28;7005;-69
2022/05/06 14:46:21;;;;;;;;;;;;;;;;;;1910492;28;7009;-68
2022/05/06 14:47:18;;;;;;;;;;;;;;;;;;1906132;28;7009;-68
2022/05/06 14:48:16;;;;;;;;;;;;;;;;;;1903180;28;7093;-67
2022/05/06 14:49:13;;;;;;;;;;;;;;;;;;1902015;28;7010;-66
2022/05/06 14:50:11;;;;;;;;;;;;;;;;;;1911684;28;7124;-68
2022/05/06 14:51:08;;;;;;;;;;;;;;;;;;1911204;28;7027;-67
2022/05/06 14:52:06;;;;;;;;;;;;;;;;;;1915549;28;7308;-68
2022/05/06 14:53:03;;;;;;;;;;;;;;;;;;1917590;28;7088;-66
2022/05/06 14:54:01;;;;;;;;;;;;;;;;;;1910283;28;7046;-66
2022/05/06 14:55:05;;;;;;;;;;;;;;;;;;1910416;28;8016;-68
2022/05/06 14:56:03;;;;;;;;;;;;;;;;;;1911072;28;7041;-68
2022/05/06 14:57:01;;;;;;;;;;;;;;;;;;1916252;28;7005;-68
2022/05/06 14:57:58;;;;;;;;;;;;;;;;;;1918546;28;7116;-66
2022/05/06 14:58:56;;;;;;;;;;;;;;;;;;1911225;28;7005;-69
2022/05/06 14:59:54;;;;;;;;;;;;;;;;;;1910964;28;7112;-67
2022/05/06 15:00:51;;;;;;;;;;;;;;;;;;1910744;28;7017;-68
2022/05/06 15:01:49;;;;;;;;;;;;;;;;;;1910756;28;7009;-68
2022/05/06 15:02:46;;;;;;;;;;;;;;;;;;1909344;28;7030;-69
2022/05/06 15:03:44;;;;;;;;;;;;;;;;;;1910407;28;8091;-69
2022/05/06 15:04:41;;;;;;;;;;;;;;;;;;1910863;28;7029;-66
2022/05/06 15:05:39;;;;;;;;;;;;;;;;;;1910845;28;7077;-66
2022/05/06 15:06:36;;;;;;;;;;;;;;;;;;1910619;28;7112;-66
2022/05/06 15:07:34;;;;;;;;;;;;;;;;;;1916205;28;7037;-65
2022/05/06 15:08:31;;;;;;;;;;;;;;;;;;1917890;28;7005;-67
2022/05/06 15:09:28;;;;;;;;;;;;;;;;;;1910656;28;7697;-66
2022/05/06 15:10:26;;;;;;;;;;;;;;;;;;1910504;28;7088;-67
2022/05/06 15:11:23;;;;;;;;;;;;;;;;;;1911262;28;8094;-68
2022/05/06 15:12:23;;;;;;;;;;;;;;;;;;1910831;28;7038;-68
2022/05/06 15:13:22;;;;;;;;;;;;;;;;;;1910361;28;7013;-65
2022/05/06 15:14:23;;;;;;;;;;;;;;;;;;1915147;28;7034;-68
2022/05/06 15:15:20;;;;;;;;;;;;;;;;;;1918669;28;7316;-66
2022/05/06 15:16:18;;;;;;;;;;;;;;;;;;1915275;28;7005;-66
2022/05/06 15:17:18;;;;;;;;;;;;;;;;;;1910745;28;7096;-67
2022/05/06 15:19:34;;;;;;;;;;;;;;;;;;1910179;28;7093;-68
2022/05/06 15:20:32;;;;;;;;;;;;;;;;;;1916887;28;7801;-69
2022/05/06 15:21:29;;;;;;;;;;;;;;;;;;1917803;28;7009;-66
2022/05/06 15:22:27;;;;;;;;;;;;;;;;;;1913267;28;7029;-68
2022/05/06 15:23:25;;;;;;;;;;;;;;;;;;1913326;28;7005;-66
2022/05/06 15:24:26;;;;;;;;;;;;;;;;;;1918427;28;7021;-67
2022/05/06 15:25:24;;;;;;;;;;;;;;;;;;1924904;28;7204;-66
2022/05/06 15:26:21;;;;;;;;;;;;;;;;;;1924795;28;7119;-68
2022/05/06 15:27:21;;;;;;;;;;;;;;;;;;1918529;28;7040;-68
2022/05/06 15:28:18;;;;;;;;;;;;;;;;;;1916323;28;7130;-66
2022/05/06 15:29:16;;;;;;;;;;;;;;;;;;1910866;28;7205;-68
2022/05/06 15:30:13;;;;;;;;;;;;;;;;;;1910038;28;7005;-69
2022/05/06 15:31:11;;;;;;;;;;;;;;;;;;1909975;28;7093;-68
2022/05/06 15:32:09;;;;;;;;;;;;;;;;;;1910299;28;7992;-67
2022/05/06 15:33:07;;;;;;;;;;;;;;;;;;1910438;28;7308;-66
2022/05/06 15:34:04;;;;;;;;;;;;;;;;;;1910085;28;7005;-67
2022/05/06 15:35:02;;;;;;;;;;;;;;;;;;1910297;28;7319;-67
2022/05/06 15:36:00;;;;;;;;;;;;;;;;;;1910551;28;7144;-67
2022/05/06 15:37:05;;;;;;;;;;;;;;;;;;1926348;28;7414;-69
2022/05/06 15:38:02;;;;;;;;;;;;;;;;;;1932498;28;7005;-67
2022/05/06 15:38:59;;;;;;;;;;;;;;;;;;1917528;28;7112;-67
2022/05/06 15:39:57;;;;;;;;;;;;;;;;;;1918264;28;7009;-67
2022/05/06 15:40:55;;;;;;;;;;;;;;;;;;1915268;28;7367;-67
2022/05/06 15:41:52;;;;;;;;;;;;;;;;;;1907918;28;7115;-67
2022/05/06 15:42:50;;;;;;;;;;;;;;;;;;1905327;28;7092;-66
2022/05/06 15:43:48;;;;;;;;;;;;;;;;;;1906576;28;7010;-66
2022/05/06 15:44:46;;;;;;;;;;;;;;;;;;1912587;28;7376;-67
2022/05/06 15:45:43;;;;;;;;;;;;;;;;;;1912356;28;7005;-67
2022/05/06 15:46:41;;;;;;;;;;;;;;;;;;1912300;28;7100;-68
2022/05/06 15:47:38;;;;;;;;;;;;;;;;;;1905691;28;7089;-68
2022/05/06 15:48:38;;;;;;;;;;;;;;;;;;1905520;28;7038;-68
2022/05/06 15:49:35;;;;;;;;;;;;;;;;;;1904737;28;7120;-65
2022/05/06 15:50:33;;;;;;;;;;;;;;;;;;1905310;28;8069;-68
2022/05/06 15:51:30;;;;;;;;;;;;;;;;;;1905488;28;7364;-67
2022/05/06 15:52:28;;;;;;;;;;;;;;;;;;1905166;28;7088;-67
2022/05/06 15:53:25;;;;;;;;;;;;;;;;;;1910400;28;7006;-66
2022/05/06 15:54:22;;;;;;;;;;;;;;;;;;1912254;28;7005;-67
2022/05/06 15:55:20;;;;;;;;;;;;;;;;;;1912154;28;7005;-66
2022/05/06 15:56:17;;;;;;;;;;;;;;;;;;1912286;28;7001;-67
2022/05/06 15:57:15;;;;;;;;;;;;;;;;;;1912320;28;7041;-68
2022/05/06 15:58:12;;;;;;;;;;;;;;;;;;1912853;28;7025;-67
2022/05/06 15:59:09;;;;;;;;;;;;;;;;;;1910913;28;7448;-68
2022/05/06 16:00:07;;;;;;;;;;;;;;;;;;1912169;28;7385;-66
2022/05/06 16:01:04;;;;;;;;;;;;;;;;;;1911453;28;7041;-66
2022/05/06 16:02:02;;;;;;;;;;;;;;;;;;1906035;28;7140;-67
2022/05/06 16:03:00;;;;;;;;;;;;;;;;;;1912786;28;7054;-67
2022/05/06 16:04:01;;;;;;;;;;;;;;;;;;1912077;28;7050;-68
2022/05/06 16:04:58;;;;;;;;;;;;;;;;;;1913021;28;7014;-67
2022/05/06 16:05:57;;;;;;;;;;;;;;;;;;1904042;28;7009;-65
2022/05/06 16:07:02;;;;;;;;;;;;;;;;;;1906555;28;9632;-68
2022/05/06 16:08:00;;;;;;;;;;;;;;;;;;1903935;28;7013;-68
2022/05/06 16:08:57;;;;;;;;;;;;;;;;;;1905362;28;7009;-67
2022/05/06 16:09:55;;;;;;;;;;;;;;;;;;1904827;28;7010;-67
2022/05/06 16:10:52;;;;;;;;;;;;;;;;;;1905150;28;7025;-69
2022/05/06 16:11:49;;;;;;;;;;;;;;;;;;1904610;28;7010;-68
2022/05/06 16:12:47;;;;;;;;;;;;;;;;;;1905335;28;7124;-68
2022/05/06 16:13:44;;;;;;;;;;;;;;;;;;1905036;28;7002;-66
2022/05/06 16:15:58;;;;;;;;;;;;;;;;;;1903975;28;7005;-69
2022/05/06 16:16:56;;;;;;;;;;;;;;;;;;1904068;28;7009;-69
2022/05/06 16:19:25;;;;;;;;;;;;;;;;;;1912606;27;6870;-66
2022/05/06 16:20:24;;;;;;;;;;;;;;;;;;1901776;28;7085;-66
2022/05/06 16:21:22;;;;;;;;;;;;;;;;;;1902092;28;7092;-68
2022/05/06 16:22:20;;;;;;;;;;;;;;;;;;1903089;28;7088;-67
2022/05/06 16:23:17;;;;;;;;;;;;;;;;;;1903243;28;7332;-66
2022/05/06 16:24:15;;;;;;;;;;;;;;;;;;1902989;28;7101;-67
2022/05/06 16:25:12;;;;;;;;;;;;;;;;;;1907866;28;7005;-67
2022/05/06 16:26:10;;;;;;;;;;;;;;;;;;1903782;28;7108;-66
2022/05/06 16:27:07;;;;;;;;;;;;;;;;;;1902954;28;7041;-67
2022/05/06 16:28:05;;;;;;;;;;;;;;;;;;1901351;28;7009;-66
2022/05/06 16:29:02;;;;;;;;;;;;;;;;;;1902849;28;8023;-67
2022/05/06 16:30:02;;;;;;;;;;;;;;;;;;1903508;28;7042;-67
2022/05/06 16:31:02;;;;;;;;;;;;;;;;;;1904018;28;8452;-65
2022/05/06 16:32:00;;;;;;;;;;;;;;;;;;1903176;28;7025;-65
2022/05/06 16:32:57;;;;;;;;;;;;;;;;;;1904068;28;7088;-66
2022/05/06 16:37:44;;;;;;;;;;;;;;;;;;1910069;28;7092;-67
2022/05/06 16:38:46;;;;;;;;;;;;;;;;;;1910733;28;7032;-68
2022/05/06 16:39:44;;;;;;;;;;;;;;;;;;1910316;28;7009;-66
2022/05/06 16:40:42;;;;;;;;;;;;;;;;;;1910372;28;7005;-66
2022/05/06 16:41:39;;;;;;;;;;;;;;;;;;1909430;28;7021;-66
2022/05/06 16:42:37;;;;;;;;;;;;;;;;;;1910273;28;7006;-67
2022/05/06 16:43:34;;;;;;;;;;;;;;;;;;1910639;28;7013;-67
2022/05/06 16:44:31;;;;;;;;;;;;;;;;;;1910295;28;7093;-67
2022/05/06 16:45:33;;;;;;;;;;;;;;;;;;1910062;28;7021;-66
2022/05/06 16:46:30;;;;;;;;;;;;;;;;;;1902257;28;7046;-65
2022/05/06 16:47:28;;;;;;;;;;;;;;;;;;1903522;28;7005;-67
2022/05/06 16:48:26;;;;;;;;;;;;;;;;;;1903071;28;7001;-66
2022/05/06 16:49:24;;;;;;;;;;;;;;;;;;1902581;28;7002;-67
2022/05/06 16:50:21;;;;;;;;;;;;;;;;;;1903281;28;7001;-68
2022/05/06 16:51:18;;;;;;;;;;;;;;;;;;1909566;28;7006;-67
2022/05/06 16:52:18;;;;;;;;;;;;;;;;;;1904137;28;7300;-67
2022/05/06 16:53:15;;;;;;;;;;;;;;;;;;1903213;28;7046;-68
2022/05/06 16:54:13;;;;;;;;;;;;;;;;;;1917211;28;7172;-66
2022/05/06 16:55:11;;;;;;;;;;;;;;;;;;1917887;28;7050;-67
2022/05/06 16:56:08;;;;;;;;;;;;;;;;;;1909615;28;8111;-67
2022/05/06 16:57:06;;;;;;;;;;;;;;;;;;1908336;28;7013;-66
2022/05/06 16:58:03;;;;;;;;;;;;;;;;;;1909621;28;7014;-66
2022/05/06 16:59:01;;;;;;;;;;;;;;;;;;1905786;28;7053;-67
2022/05/06 16:59:58;;;;;;;;;;;;;;;;;;1902431;28;7092;-67
2022/05/06 17:01:02;;;;;;;;;;;;;;;;;;1900959;28;8975;-67
2022/05/06 17:02:00;;;;;;;;;;;;;;;;;;1902662;28;7034;-66
2022/05/06 17:02:58;;;;;;;;;;;;;;;;;;1902208;28;7010;-66
2022/05/06 17:03:55;;;;;;;;;;;;;;;;;;1902309;28;7058;-66
2022/05/06 17:04:53;;;;;;;;;;;;;;;;;;1903239;28;7140;-68
2022/05/06 17:05:51;;;;;;;;;;;;;;;;;;1902595;28;7113;-67
2022/05/06 17:06:49;;;;;;;;;;;;;;;;;;1902598;28;7014;-66
2022/05/06 17:07:46;;;;;;;;;;;;;;;;;;1902537;28;7002;-66
2022/05/06 17:08:44;;;;;;;;;;;;;;;;;;1902761;28;7112;-67
2022/05/06 17:09:41;;;;;;;;;;;;;;;;;;1906577;28;7001;-65
2022/05/06 17:10:39;;;;;;;;;;;;;;;;;;1903072;28;7144;-67
2022/05/06 17:11:36;;;;;;;;;;;;;;;;;;1901729;28;7484;-65
2022/05/06 17:12:34;;;;;;;;;;;;;;;;;;1903340;28;7013;-68
2022/05/06 17:13:32;;;;;;;;;;;;;;;;;;1908241;28;7010;-66
2022/05/06 17:14:29;;;;;;;;;;;;;;;;;;1902414;28;8047;-67
2022/05/06 17:15:26;;;;;;;;;;;;;;;;;;1907014;28;7363;-66
2022/05/06 17:16:24;;;;;;;;;;;;;;;;;;1910422;28;7026;-68
2022/05/06 17:17:21;;;;;;;;;;;;;;;;;;1909992;28;7013;-68
2022/05/06 17:18:19;;;;;;;;;;;;;;;;;;1910324;28;7012;-68
2022/05/06 17:19:18;;;;;;;;;;;;;;;;;;1910246;28;8324;-66
2022/05/06 17:20:16;;;;;;;;;;;;;;;;;;1903627;28;7006;-66
2022/05/06 17:21:14;;;;;;;;;;;;;;;;;;1906183;28;7005;-67
2022/05/06 17:22:11;;;;;;;;;;;;;;;;;;1905564;28;7133;-68
2022/05/06 17:23:09;;;;;;;;;;;;;;;;;;1902162;28;8051;-66
2022/05/06 17:24:06;;;;;;;;;;;;;;;;;;1901781;28;7092;-67
2022/05/06 17:25:04;;;;;;;;;;;;;;;;;;1903209;28;8019;-67
2022/05/06 17:26:02;;;;;;;;;;;;;;;;;;1909851;28;7088;-66
2022/05/06 17:27:00;;;;;;;;;;;;;;;;;;1904792;28;7038;-66
2022/05/06 17:27:57;;;;;;;;;;;;;;;;;;1901637;28;7265;-66
2022/05/06 17:28:55;;;;;;;;;;;;;;;;;;1902754;28;7005;-68
2022/05/06 17:29:52;;;;;;;;;;;;;;;;;;1903352;28;7041;-68
2022/05/06 17:30:50;;;;;;;;;;;;;;;;;;1897573;28;7010;-66
2022/05/06 17:31:51;;;;;;;;;;;;;;;;;;1897573;28;7009;-67
2022/05/06 17:32:48;;;;;;;;;;;;;;;;;;1897400;28;7010;-65
2022/05/06 17:33:46;;;;;;;;;;;;;;;;;;1896869;28;7025;-68
2022/05/06 17:34:43;;;;;;;;;;;;;;;;;;1897153;28;7049;-67
2022/05/06 17:35:41;;;;;;;;;;;;;;;;;;1897817;28;7017;-66
2022/05/06 17:36:39;;;;;;;;;;;;;;;;;;1898108;28;7046;-68
2022/05/06 17:37:39;;;;;;;;;;;;;;;;;;1897825;28;7014;-67
2022/05/06 17:38:36;;;;;;;;;;;;;;;;;;1897894;28;7045;-68
2022/05/06 17:39:34;;;;;;;;;;;;;;;;;;1897503;28;7009;-66
2022/05/06 17:40:32;;;;;;;;;;;;;;;;;;1900809;28;7344;-67
2022/05/06 17:41:29;;;;;;;;;;;;;;;;;;1904984;28;7034;-66
2022/05/06 17:42:27;;;;;;;;;;;;;;;;;;1905265;28;7303;-65
2022/05/06 17:43:25;;;;;;;;;;;;;;;;;;1904677;28;7038;-66
2022/05/06 17:44:22;;;;;;;;;;;;;;;;;;1905626;28;7009;-66
2022/05/06 17:45:19;;;;;;;;;;;;;;;;;;1898510;28;7005;-67
2022/05/06 17:46:19;;;;;;;;;;;;;;;;;;1899060;28;7104;-67
2022/05/06 17:47:17;;;;;;;;;;;;;;;;;;1897787;28;7297;-67
2022/05/06 17:48:14;;;;;;;;;;;;;;;;;;1897369;28;7013;-68
2022/05/06 17:49:13;;;;;;;;;;;;;;;;;;1898075;28;7092;-66
2022/05/06 17:50:11;;;;;;;;;;;;;;;;;;1896306;28;7149;-67
2022/05/06 17:51:09;;;;;;;;;;;;;;;;;;1897117;28;7006;-64
2022/05/06 17:52:06;;;;;;;;;;;;;;;;;;1897098;28;7006;-66
2022/05/06 17:53:04;;;;;;;;;;;;;;;;;;1896578;28;7074;-67
2022/05/06 17:54:05;;;;;;;;;;;;;;;;;;1897276;28;7089;-66
2022/05/06 17:55:02;;;;;;;;;;;;;;;;;;1900235;28;7092;-66
2022/05/06 17:56:00;;;;;;;;;;;;;;;;;;1897406;28;7127;-67
2022/05/06 17:56:57;;;;;;;;;;;;;;;;;;1897791;28;8019;-65
2022/05/06 17:57:54;;;;;;;;;;;;;;;;;;1905051;28;7042;-67
2022/05/06 17:58:52;;;;;;;;;;;;;;;;;;1904967;28;7005;-67
2022/05/06 18:01:17;;;;;;;;;;;;;;;;;;1904960;28;7014;-67
2022/05/06 18:02:15;;;;;;;;;;;;;;;;;;1905447;28;7088;-68
2022/05/06 18:03:13;;;;;;;;;;;;;;;;;;1918617;28;7258;-66
2022/05/06 18:04:12;;;;;;;;;;;;;;;;;;1919339;28;7021;-67
2022/05/06 18:05:09;;;;;;;;;;;;;;;;;;1906003;28;7179;-67
2022/05/06 18:06:06;;;;;;;;;;;;;;;;;;1904578;28;7038;-66
2022/05/06 18:07:11;;;;;;;;;;;;;;;;;;1905074;28;7100;-66
2022/05/06 18:08:08;;;;;;;;;;;;;;;;;;1899439;28;7002;-66
2022/05/06 18:09:06;;;;;;;;;;;;;;;;;;1897322;28;7033;-66
2022/05/06 18:10:03;;;;;;;;;;;;;;;;;;1897810;28;7005;-65
2022/05/06 18:11:01;;;;;;;;;;;;;;;;;;1897723;28;7092;-67
2022/05/06 18:11:59;;;;;;;;;;;;;;;;;;1904690;28;7034;-66
2022/05/06 18:13:01;;;;;;;;;;;;;;;;;;1904579;28;8083;-67
2022/05/06 18:13:59;;;;;;;;;;;;;;;;;;1904703;28;7054;-67
2022/05/06 18:14:56;;;;;;;;;;;;;;;;;;1899832;28;7009;-67
2022/05/06 18:15:54;;;;;;;;;;;;;;;;;;1905119;28;7100;-66
2022/05/06 18:16:52;;;;;;;;;;;;;;;;;;1912112;28;7041;-66
2022/05/06 18:17:49;;;;;;;;;;;;;;;;;;1912735;28;7017;-66
2022/05/06 18:18:48;;;;;;;;;;;;;;;;;;1911489;28;7096;-67
2022/05/06 18:19:46;;;;;;;;;;;;;;;;;;1905359;28;7013;-66
2022/05/06 18:20:44;;;;;;;;;;;;;;;;;;1905140;28;7009;-67
2022/05/06 18:21:42;;;;;;;;;;;;;;;;;;1904678;28;7005;-66
2022/05/06 18:22:40;;;;;;;;;;;;;;;;;;1904914;28;7088;-67
2022/05/06 18:23:37;;;;;;;;;;;;;;;;;;1903868;28;7042;-65
2022/05/06 18:24:35;;;;;;;;;;;;;;;;;;1911619;28;7021;-65
2022/05/06 18:25:32;;;;;;;;;;;;;;;;;;1911435;28;8530;-68
2022/05/06 18:26:30;;;;;;;;;;;;;;;;;;1908672;28;7009;-67
2022/05/06 18:27:27;;;;;;;;;;;;;;;;;;1910265;28;7005;-65
2022/05/06 18:28:25;;;;;;;;;;;;;;;;;;1911632;28;7092;-65
2022/05/06 18:29:22;;;;;;;;;;;;;;;;;;1911811;28;7001;-65
2022/05/06 18:30:20;;;;;;;;;;;;;;;;;;1911950;28;7328;-67
2022/05/06 18:34:04;;;;;;;;;;;;;;;;;;1903504;28;7045;-66
2022/05/06 18:35:03;;;;;;;;;;;;;;;;;;1903939;28;7128;-66
2022/05/06 18:36:02;;;;;;;;;;;;;;;;;;1905336;28;7380;-66
2022/05/06 18:36:59;;;;;;;;;;;;;;;;;;1904248;28;7046;-66
2022/05/06 18:37:58;;;;;;;;;;;;;;;;;;1905393;28;7013;-67
2022/05/06 18:39:04;;;;;;;;;;;;;;;;;;1904493;28;7009;-66
2022/05/06 18:40:02;;;;;;;;;;;;;;;;;;1903992;28;8238;-65
2022/05/06 18:41:00;;;;;;;;;;;;;;;;;;1905258;28;7987;-67
2022/05/06 18:41:57;;;;;;;;;;;;;;;;;;1906095;28;7013;-65
2022/05/06 18:42:55;;;;;;;;;;;;;;;;;;1910415;28;7105;-66
2022/05/06 18:43:52;;;;;;;;;;;;;;;;;;1910960;28;7168;-67
2022/05/06 18:44:50;;;;;;;;;;;;;;;;;;1904218;28;7148;-66
2022/05/06 18:45:48;;;;;;;;;;;;;;;;;;1904632;28;7006;-66
2022/05/06 18:46:45;;;;;;;;;;;;;;;;;;1905770;28;7027;-68
2022/05/06 18:47:44;;;;;;;;;;;;;;;;;;1903149;28;7092;-66
2022/05/06 18:48:42;;;;;;;;;;;;;;;;;;1912724;28;7013;-66
2022/05/06 18:49:40;;;;;;;;;;;;;;;;;;1911928;28;7032;-67
2022/05/06 18:50:39;;;;;;;;;;;;;;;;;;1904049;28;7013;-67
2022/05/06 18:51:36;;;;;;;;;;;;;;;;;;1904022;28;7038;-67
2022/05/06 18:52:33;;;;;;;;;;;;;;;;;;1906768;28;7368;-64
2022/05/06 18:53:31;;;;;;;;;;;;;;;;;;1904587;28;8390;-64
2022/05/06 18:54:29;;;;;;;;;;;;;;;;;;1904040;28;7001;-65
2022/05/06 18:55:27;;;;;;;;;;;;;;;;;;1904643;28;8179;-66
2022/05/06 18:56:24;;;;;;;;;;;;;;;;;;1906827;28;7148;-66
2022/05/06 18:57:21;;;;;;;;;;;;;;;;;;1907370;28;7088;-65
2022/05/06 18:58:19;;;;;;;;;;;;;;;;;;1904211;28;7005;-65
2022/05/06 18:59:17;;;;;;;;;;;;;;;;;;1905831;28;7026;-67
2022/05/06 19:00:15;;;;;;;;;;;;;;;;;;1904519;28;7009;-66
2022/05/06 19:01:12;;;;;;;;;;;;;;;;;;1904066;28;7005;-67
2022/05/06 19:02:10;;;;;;;;;;;;;;;;;;1904066;28;7092;-67
2022/05/06 19:03:07;;;;;;;;;;;;;;;;;;1903971;28;7018;-66
2022/05/06 19:04:05;;;;;;;;;;;;;;;;;;1904298;28;7009;-64
2022/05/06 19:05:03;;;;;;;;;;;;;;;;;;1903590;28;7013;-65
2022/05/06 19:06:00;;;;;;;;;;;;;;;;;;1902675;28;7520;-66
2022/05/06 19:06:58;;;;;;;;;;;;;;;;;;1904334;28;8047;-66
2022/05/06 19:08:16;;;;;;;;;;;;;;;;;;1904471;28;7124;-67
2022/05/06 19:09:13;;;;;;;;;;;;;;;;;;1904594;28;7013;-67
2022/05/06 19:10:11;;;;;;;;;;;;;;;;;;1904435;28;7013;-66
2022/05/06 19:11:08;;;;;;;;;;;;;;;;;;1907813;28;7009;-66
2022/05/06 19:12:06;;;;;;;;;;;;;;;;;;1911410;28;7108;-67
2022/05/06 19:13:03;;;;;;;;;;;;;;;;;;1911371;28;7009;-67
2022/05/06 19:14:01;;;;;;;;;;;;;;;;;;1909560;28;7088;-67
2022/05/06 19:15:02;;;;;;;;;;;;;;;;;;1903930;28;7320;-66
2022/05/06 19:16:00;;;;;;;;;;;;;;;;;;1904971;28;7009;-67
2022/05/06 19:16:58;;;;;;;;;;;;;;;;;;1904267;28;7146;-68
2022/05/06 19:18:01;;;;;;;;;;;;;;;;;;1906307;28;8079;-66
2022/05/06 19:18:58;;;;;;;;;;;;;;;;;;1905116;28;7037;-66
2022/05/06 19:19:56;;;;;;;;;;;;;;;;;;1904329;28;7005;-66
2022/05/06 19:20:55;;;;;;;;;;;;;;;;;;1904591;28;7005;-67
2022/05/06 19:25:40;;;;;;;;;;;;;;;;;;1902918;28;7120;-65
2022/05/06 19:26:38;;;;;;;;;;;;;;;;;;1910796;28;8038;-66
2022/05/06 19:27:35;;;;;;;;;;;;;;;;;;1909725;28;7096;-65
2022/05/06 19:28:33;;;;;;;;;;;;;;;;;;1904645;28;7045;-66
2022/05/06 19:29:31;;;;;;;;;;;;;;;;;;1904170;28;8029;-66
2022/05/06 19:30:28;;;;;;;;;;;;;;;;;;1904322;28;8087;-67
2022/05/06 19:31:26;;;;;;;;;;;;;;;;;;1909072;28;7017;-68
2022/05/06 19:32:26;;;;;;;;;;;;;;;;;;1904727;28;7014;-67
2022/05/06 19:33:23;;;;;;;;;;;;;;;;;;1903853;28;8039;-66
2022/05/06 19:34:21;;;;;;;;;;;;;;;;;;1903924;28;7071;-68
2022/05/06 19:35:19;;;;;;;;;;;;;;;;;;1905252;28;7002;-66
2022/05/06 19:36:17;;;;;;;;;;;;;;;;;;1904520;28;7331;-67
2022/05/06 19:37:15;;;;;;;;;;;;;;;;;;1904282;28;7092;-66
2022/05/06 19:38:14;;;;;;;;;;;;;;;;;;1904745;28;7009;-67
2022/05/06 19:39:12;;;;;;;;;;;;;;;;;;1904940;28;7128;-67
2022/05/06 19:40:11;;;;;;;;;;;;;;;;;;1904194;28;7005;-66
2022/05/06 19:41:08;;;;;;;;;;;;;;;;;;1904210;28;8031;-68
2022/05/06 19:42:06;;;;;;;;;;;;;;;;;;1904393;28;7359;-66
2022/05/06 19:43:05;;;;;;;;;;;;;;;;;;1912936;28;7005;-67
2022/05/06 19:44:02;;;;;;;;;;;;;;;;;;1912224;28;7041;-66
2022/05/06 19:45:00;;;;;;;;;;;;;;;;;;1907795;28;7096;-66
2022/05/06 19:45:58;;;;;;;;;;;;;;;;;;1907498;28;7041;-65
2022/05/06 19:46:57;;;;;;;;;;;;;;;;;;1904174;28;7017;-64
2022/05/06 19:47:56;;;;;;;;;;;;;;;;;;1904395;28;7009;-68
2022/05/06 19:48:54;;;;;;;;;;;;;;;;;;1903510;28;7005;-68
2022/05/06 19:49:51;;;;;;;;;;;;;;;;;;1903870;28;7013;-68
2022/05/06 19:50:49;;;;;;;;;;;;;;;;;;1906377;28;7096;-66